createdAt,value
2022-09-13T00:00:20.899Z,1015.01
2022-09-13T00:01:20.941Z,1015.01
2022-09-13T00:02:21.013Z,1014.97
2022-09-13T00:03:20.923Z,1014.99
2022-09-13T00:04:20.908Z,1014.93
2022-09-13T00:05:20.917Z,1014.96
2022-09-13T00:06:20.916Z,1014.94
2022-09-13T00:07:20.927Z,1014.92
2022-09-13T00:08:20.924Z,1014.92
2022-09-13T00:09:20.911Z,1014.89
2022-09-13T00:10:20.931Z,1014.87
2022-09-13T00:11:20.915Z,1014.92
2022-09-13T00:12:20.927Z,1014.9
2022-09-13T00:13:20.920Z,1014.87
2022-09-13T00:14:20.917Z,1014.83
2022-09-13T00:15:20.910Z,1014.83
2022-09-13T00:16:20.967Z,1014.81
2022-09-13T00:17:20.935Z,1014.82
2022-09-13T00:18:20.915Z,1014.79
2022-09-13T00:19:20.904Z,1014.76
2022-09-13T00:20:20.912Z,1014.75
2022-09-13T00:21:20.913Z,1014.75
2022-09-13T00:22:20.930Z,1014.74
2022-09-13T00:23:20.915Z,1014.74
2022-09-13T00:24:20.969Z,1014.7
2022-09-13T00:25:20.935Z,1014.72
2022-09-13T00:26:20.916Z,1014.73
2022-09-13T00:27:20.954Z,1014.75
2022-09-13T00:28:20.916Z,1014.77
2022-09-13T00:29:20.927Z,1014.73
2022-09-13T00:30:20.916Z,1014.73
2022-09-13T00:31:20.933Z,1014.7
2022-09-13T00:32:20.947Z,1014.68
2022-09-13T00:33:20.904Z,1014.65
2022-09-13T00:34:20.907Z,1014.69
2022-09-13T00:35:20.915Z,1014.68
2022-09-13T00:36:20.911Z,1014.68
2022-09-13T00:37:20.935Z,1014.66
2022-09-13T00:38:20.893Z,1014.64
2022-09-13T00:39:20.911Z,1014.64
2022-09-13T00:40:21.057Z,1014.67
2022-09-13T00:41:20.917Z,1014.62
2022-09-13T00:42:20.918Z,1014.61
2022-09-13T00:43:20.895Z,1014.57
2022-09-13T00:44:20.898Z,1014.53
2022-09-13T00:45:20.937Z,1014.53
2022-09-13T00:46:20.901Z,1014.52
2022-09-13T00:47:20.911Z,1014.52
2022-09-13T00:48:20.897Z,1014.56
2022-09-13T00:49:20.894Z,1014.53
2022-09-13T00:50:20.900Z,1014.53
2022-09-13T00:51:20.895Z,1014.49
2022-09-13T00:52:20.913Z,1014.45
2022-09-13T00:53:20.899Z,1014.43
2022-09-13T00:54:20.896Z,1014.43
2022-09-13T00:55:20.942Z,1014.45
2022-09-13T00:56:20.899Z,1014.42
2022-09-13T00:57:20.915Z,1014.39
2022-09-13T00:58:20.900Z,1014.37
2022-09-13T00:59:20.912Z,1014.34
2022-09-13T01:00:20.899Z,1014.44
2022-09-13T01:01:20.989Z,1014.4
2022-09-13T01:02:20.996Z,1014.4
2022-09-13T01:03:20.909Z,1014.44
2022-09-13T01:04:20.913Z,1014.4
2022-09-13T01:05:20.904Z,1014.35
2022-09-13T01:06:20.911Z,1014.35
2022-09-13T01:07:21.008Z,1014.33
2022-09-13T01:08:20.924Z,1014.33
2022-09-13T01:09:20.906Z,1014.32
2022-09-13T01:10:20.928Z,1014.33
2022-09-13T01:11:20.913Z,1014.32
2022-09-13T01:12:20.926Z,1014.26
2022-09-13T01:13:20.911Z,1014.3
2022-09-13T01:14:20.924Z,1014.29
2022-09-13T01:15:20.913Z,1014.27
2022-09-13T01:16:21.028Z,1014.32
2022-09-13T01:17:20.930Z,1014.28
2022-09-13T01:18:20.928Z,1014.32
2022-09-13T01:19:20.905Z,1014.23
2022-09-13T01:20:20.908Z,1014.2
2022-09-13T01:21:20.922Z,1014.16
2022-09-13T01:22:20.939Z,1014.15
2022-09-13T01:23:20.906Z,1014.08
2022-09-13T01:24:20.976Z,1014.06
2022-09-13T01:25:20.927Z,1014.05
2022-09-13T01:26:20.918Z,1014.01
2022-09-13T01:27:20.931Z,1014.05
2022-09-13T01:28:20.894Z,1014.04
2022-09-13T01:29:20.912Z,1014.08
2022-09-13T01:30:20.896Z,1014.08
2022-09-13T01:31:21.007Z,1014.05
2022-09-13T01:32:20.930Z,1014.07
2022-09-13T01:33:20.912Z,1014.02
2022-09-13T01:34:20.900Z,1013.96
2022-09-13T01:35:20.909Z,1013.94
2022-09-13T01:36:20.905Z,1013.97
2022-09-13T01:37:20.938Z,1013.89
2022-09-13T01:38:20.915Z,1013.82
2022-09-13T01:39:20.906Z,1013.86
2022-09-13T01:40:21.014Z,1013.86
2022-09-13T01:41:20.890Z,1013.88
2022-09-13T01:42:20.930Z,1013.83
2022-09-13T01:43:20.907Z,1013.8
2022-09-13T01:44:20.914Z,1013.82
2022-09-13T01:45:20.915Z,1013.81
2022-09-13T01:46:20.905Z,1013.79
2022-09-13T01:47:20.937Z,1013.77
2022-09-13T01:48:20.923Z,1013.77
2022-09-13T01:49:20.910Z,1013.75
2022-09-13T01:50:20.889Z,1013.75
2022-09-13T01:51:20.903Z,1013.71
2022-09-13T01:52:20.916Z,1013.7
2022-09-13T01:53:20.905Z,1013.69
2022-09-13T01:54:20.902Z,1013.67
2022-09-13T01:55:20.925Z,1013.67
2022-09-13T01:56:20.894Z,1013.65
2022-09-13T01:57:20.926Z,1013.7
2022-09-13T01:58:20.911Z,1013.7
2022-09-13T01:59:20.928Z,1013.61
2022-09-13T02:00:20.907Z,1013.61
2022-09-13T02:01:20.954Z,1013.57
2022-09-13T02:02:20.975Z,1013.64
2022-09-13T02:03:20.903Z,1013.62
2022-09-13T02:04:20.902Z,1013.58
2022-09-13T02:05:20.901Z,1013.64
2022-09-13T02:06:20.913Z,1013.65
2022-09-13T02:07:20.923Z,1013.58
2022-09-13T02:08:20.918Z,1013.58
2022-09-13T02:09:21.665Z,1013.55
2022-09-13T02:10:20.925Z,1013.53
2022-09-13T02:11:20.909Z,1013.55
2022-09-13T02:12:20.936Z,1013.49
2022-09-13T02:13:20.910Z,1013.48
2022-09-13T02:14:20.905Z,1013.46
2022-09-13T02:15:20.917Z,1013.46
2022-09-13T02:16:20.926Z,1013.45
2022-09-13T02:17:20.918Z,1013.44
2022-09-13T02:18:20.903Z,1013.42
2022-09-13T02:19:20.937Z,1013.4
2022-09-13T02:20:20.909Z,1013.35
2022-09-13T02:21:20.917Z,1013.32
2022-09-13T02:22:20.986Z,1013.3
2022-09-13T02:23:20.917Z,1013.3
2022-09-13T02:24:20.907Z,1013.32
2022-09-13T02:25:20.936Z,1013.28
2022-09-13T02:26:20.899Z,1013.21
2022-09-13T02:27:20.922Z,1013.21
2022-09-13T02:28:20.921Z,1013.25
2022-09-13T02:29:20.911Z,1013.22
2022-09-13T02:30:20.901Z,1013.4
2022-09-13T02:31:21.012Z,1013.49
2022-09-13T02:32:20.930Z,1013.47
2022-09-13T02:33:20.915Z,1013.43
2022-09-13T02:34:20.908Z,1013.21
2022-09-13T02:35:20.908Z,1013.22
2022-09-13T02:36:20.915Z,1013.21
2022-09-13T02:37:20.929Z,1013.13
2022-09-13T02:38:20.913Z,1013.16
2022-09-13T02:39:20.910Z,1013.18
2022-09-13T02:40:20.999Z,1013.17
2022-09-13T02:41:20.912Z,1013.17
2022-09-13T02:42:20.926Z,1013.22
2022-09-13T02:43:20.909Z,1013.41
2022-09-13T02:44:20.912Z,1013.34
2022-09-13T02:45:20.904Z,1013.32
2022-09-13T02:46:20.918Z,1013.32
2022-09-13T02:47:20.918Z,1013.32
2022-09-13T02:48:20.911Z,1013.29
2022-09-13T02:49:20.900Z,1013.23
2022-09-13T02:50:20.924Z,1013.29
2022-09-13T02:51:20.917Z,1013.29
2022-09-13T02:52:20.929Z,1013.31
2022-09-13T02:53:20.912Z,1013.27
2022-09-13T02:54:20.901Z,1013.25
2022-09-13T02:55:20.954Z,1013.25
2022-09-13T02:56:20.901Z,1013.29
2022-09-13T02:57:20.914Z,1013.08
2022-09-13T02:58:26.272Z,1013.11
2022-09-13T02:59:20.906Z,1013.11
2022-09-13T03:00:20.894Z,1013.11
2022-09-13T03:01:20.957Z,1013.2
2022-09-13T03:02:20.954Z,1013.27
2022-09-13T03:03:20.896Z,1013.18
2022-09-13T03:04:20.902Z,1013.23
2022-09-13T03:05:20.913Z,1013.23
2022-09-13T03:06:20.905Z,1013.2
2022-09-13T03:07:20.915Z,1013.17
2022-09-13T03:08:20.904Z,1013.17
2022-09-13T03:09:20.892Z,1013.16
2022-09-13T03:10:20.908Z,1013.16
2022-09-13T03:11:20.909Z,1013.16
2022-09-13T03:12:20.908Z,1013.16
2022-09-13T03:13:20.902Z,1013.18
2022-09-13T03:14:20.929Z,1013.17
2022-09-13T03:15:20.895Z,1013.17
2022-09-13T03:16:20.933Z,1013.17
2022-09-13T03:17:20.921Z,1013.08
2022-09-13T03:18:20.911Z,1013.15
2022-09-13T03:19:20.893Z,1013.14
2022-09-13T03:20:20.894Z,1013.14
2022-09-13T03:21:20.906Z,1013.1
2022-09-13T03:22:20.925Z,1013.07
2022-09-13T03:23:20.923Z,1013.14
2022-09-13T03:24:20.913Z,1013.13
2022-09-13T03:25:20.916Z,1013.13
2022-09-13T03:26:20.905Z,1013.17
2022-09-13T03:27:20.924Z,1013.13
2022-09-13T03:28:20.909Z,1013.17
2022-09-13T03:29:20.891Z,1013.18
2022-09-13T03:30:20.894Z,1013.18
2022-09-13T03:31:21.252Z,1013.18
2022-09-13T03:32:20.925Z,1013.2
2022-09-13T03:33:20.904Z,1013.21
2022-09-13T03:34:20.910Z,1013.16
2022-09-13T03:35:20.901Z,1013.16
2022-09-13T03:36:20.941Z,1013.16
2022-09-13T03:37:20.932Z,1013.16
2022-09-13T03:38:20.898Z,1013.16
2022-09-13T03:39:20.914Z,1013.17
2022-09-13T03:40:21.196Z,1013.17
2022-09-13T03:41:20.918Z,1013.2
2022-09-13T03:42:20.923Z,1013.18
2022-09-13T03:43:20.909Z,1013.14
2022-09-13T03:44:20.913Z,1013.14
2022-09-13T03:45:20.898Z,1013.14
2022-09-13T03:46:20.914Z,1013.19
2022-09-13T03:47:20.927Z,1013.16
2022-09-13T03:48:20.916Z,1013.14
2022-09-13T03:49:20.915Z,1013.14
2022-09-13T03:50:20.901Z,1013.15
2022-09-13T03:51:20.911Z,1013.16
2022-09-13T03:52:20.928Z,1013.14
2022-09-13T03:53:20.907Z,1013.15
2022-09-13T03:54:20.900Z,1013.14
2022-09-13T03:55:20.923Z,1013.14
2022-09-13T03:56:20.909Z,1013.12
2022-09-13T03:57:20.937Z,1013.14
2022-09-13T03:58:20.910Z,1013.11
2022-09-13T03:59:20.910Z,1013.07
2022-09-13T04:00:20.902Z,1013.07
2022-09-13T04:01:20.924Z,1013.03
2022-09-13T04:02:21.092Z,1012.98
2022-09-13T04:03:20.913Z,1012.97
2022-09-13T04:04:20.903Z,1012.98
2022-09-13T04:05:20.896Z,1012.98
2022-09-13T04:06:20.907Z,1012.91
2022-09-13T04:07:20.955Z,1012.95
2022-09-13T04:08:20.908Z,1012.95
2022-09-13T04:09:20.915Z,1012.91
2022-09-13T04:10:20.924Z,1012.91
2022-09-13T04:11:20.911Z,1012.83
2022-09-13T04:12:20.922Z,1012.83
2022-09-13T04:13:20.890Z,1012.81
2022-09-13T04:14:20.894Z,1012.87
2022-09-13T04:15:20.902Z,1012.87
2022-09-13T04:16:20.927Z,1012.89
2022-09-13T04:17:20.911Z,1012.87
2022-09-13T04:18:20.891Z,1012.82
2022-09-13T04:19:20.894Z,1012.79
2022-09-13T04:20:20.892Z,1012.79
2022-09-13T04:21:20.891Z,1012.88
2022-09-13T04:22:20.906Z,1012.86
2022-09-13T04:23:20.907Z,1012.82
2022-09-13T04:24:20.892Z,1012.88
2022-09-13T04:25:20.917Z,1012.88
2022-09-13T04:26:20.890Z,1012.85
2022-09-13T04:27:20.914Z,1012.9
2022-09-13T04:28:20.892Z,1012.85
2022-09-13T04:29:20.925Z,1012.83
2022-09-13T04:30:20.892Z,1012.83
2022-09-13T04:31:20.942Z,1012.87
2022-09-13T04:32:20.925Z,1012.9
2022-09-13T04:33:20.916Z,1012.88
2022-09-13T04:34:20.913Z,1012.92
2022-09-13T04:35:20.892Z,1012.92
2022-09-13T04:36:20.918Z,1012.9
2022-09-13T04:37:20.910Z,1012.97
2022-09-13T04:38:20.915Z,1012.98
2022-09-13T04:39:20.906Z,1012.99
2022-09-13T04:40:20.951Z,1012.99
2022-09-13T04:41:20.913Z,1012.99
2022-09-13T04:42:20.933Z,1012.96
2022-09-13T04:43:20.913Z,1012.96
2022-09-13T04:44:20.916Z,1012.93
2022-09-13T04:45:20.897Z,1012.93
2022-09-13T04:46:20.980Z,1012.88
2022-09-13T04:47:20.924Z,1012.82
2022-09-13T04:48:20.914Z,1012.83
2022-09-13T04:49:20.911Z,1012.78
2022-09-13T04:50:20.900Z,1012.78
2022-09-13T04:51:20.907Z,1012.82
2022-09-13T04:52:20.933Z,1012.88
2022-09-13T04:53:20.914Z,1012.86
2022-09-13T04:54:20.904Z,1012.92
2022-09-13T04:55:20.919Z,1012.92
2022-09-13T04:56:20.915Z,1012.92
2022-09-13T04:57:20.918Z,1012.92
2022-09-13T04:58:20.914Z,1012.9
2022-09-13T04:59:20.917Z,1012.95
2022-09-13T05:00:20.899Z,1012.95
2022-09-13T05:01:21.628Z,1012.97
2022-09-13T05:02:21.023Z,1012.93
2022-09-13T05:03:20.913Z,1012.95
2022-09-13T05:04:20.915Z,1012.92
2022-09-13T05:05:20.891Z,1012.92
2022-09-13T05:06:20.945Z,1012.98
2022-09-13T05:07:20.920Z,1012.87
2022-09-13T05:08:20.908Z,1012.87
2022-09-13T05:09:20.963Z,1012.86
2022-09-13T05:10:20.907Z,1012.86
2022-09-13T05:11:20.912Z,1012.88
2022-09-13T05:12:20.947Z,1012.88
2022-09-13T05:13:20.911Z,1012.8
2022-09-13T05:14:20.918Z,1012.8
2022-09-13T05:15:20.944Z,1012.8
2022-09-13T05:16:20.942Z,1012.83
2022-09-13T05:17:20.921Z,1012.83
2022-09-13T05:18:20.910Z,1012.82
2022-09-13T05:19:20.899Z,1012.8
2022-09-13T05:20:20.896Z,1012.8
2022-09-13T05:21:20.947Z,1012.86
2022-09-13T05:22:20.924Z,1012.83
2022-09-13T05:23:20.910Z,1012.86
2022-09-13T05:24:20.921Z,1012.86
2022-09-13T05:25:25.425Z,1012.86
2022-09-13T05:26:20.925Z,1012.87
2022-09-13T05:27:20.943Z,1012.72
2022-09-13T05:28:20.915Z,1012.76
2022-09-13T05:29:20.897Z,1012.76
2022-09-13T05:30:20.894Z,1012.74
2022-09-13T05:31:20.962Z,1012.72
2022-09-13T05:32:20.907Z,1012.65
2022-09-13T05:33:20.975Z,1012.72
2022-09-13T05:34:20.892Z,1012.69
2022-09-13T05:35:20.898Z,1012.69
2022-09-13T05:36:20.892Z,1012.63
2022-09-13T05:37:20.909Z,1012.67
2022-09-13T05:38:20.901Z,1012.67
2022-09-13T05:39:36.356Z,1012.65
2022-09-13T05:40:20.925Z,1012.65
2022-09-13T05:41:20.895Z,1012.69
2022-09-13T05:42:20.914Z,1012.68
2022-09-13T05:43:20.903Z,1012.7
2022-09-13T05:44:20.897Z,1012.67
2022-09-13T05:45:20.893Z,1012.67
2022-09-13T05:46:20.920Z,1012.66
2022-09-13T05:47:20.911Z,1012.64
2022-09-13T05:48:20.910Z,1012.66
2022-09-13T05:49:20.901Z,1012.67
2022-09-13T05:50:45.103Z,1012.67
2022-09-13T05:51:20.912Z,1012.68
2022-09-13T05:52:20.921Z,1012.71
2022-09-13T05:53:20.907Z,1012.69
2022-09-13T05:54:20.919Z,1012.65
2022-09-13T05:55:21.109Z,1012.65
2022-09-13T05:56:20.911Z,1012.6
2022-09-13T05:57:20.934Z,1012.58
2022-09-13T05:58:20.957Z,1012.53
2022-09-13T05:59:20.912Z,1012.54
2022-09-13T06:00:20.903Z,1012.54
2022-09-13T06:01:20.983Z,1012.52
2022-09-13T06:02:21.014Z,1012.45
2022-09-13T06:03:20.909Z,1012.51
2022-09-13T06:04:20.945Z,1012.46
2022-09-13T06:05:20.890Z,1012.46
2022-09-13T06:06:20.911Z,1012.42
2022-09-13T06:07:20.927Z,1012.38
2022-09-13T06:08:20.903Z,1012.38
2022-09-13T06:09:20.910Z,1012.33
2022-09-13T06:10:20.916Z,1012.33
2022-09-13T06:11:20.897Z,1012.31
2022-09-13T06:12:20.923Z,1012.29
2022-09-13T06:13:20.915Z,1012.33
2022-09-13T06:14:20.914Z,1012.32
2022-09-13T06:15:20.901Z,1012.32
2022-09-13T06:16:21.040Z,1012.41
2022-09-13T06:17:20.923Z,1012.32
2022-09-13T06:18:20.902Z,1012.27
2022-09-13T06:19:20.907Z,1012.3
2022-09-13T06:20:20.912Z,1012.3
2022-09-13T06:21:21.641Z,1012.39
2022-09-13T06:22:20.928Z,1012.22
2022-09-13T06:23:21.054Z,1012.31
2022-09-13T06:24:20.919Z,1012.29
2022-09-13T06:25:20.916Z,1012.23
2022-09-13T06:26:20.907Z,1012.29
2022-09-13T06:27:20.927Z,1012.21
2022-09-13T06:28:21.336Z,1012.2
2022-09-13T06:29:20.911Z,1012.26
2022-09-13T06:30:20.912Z,1012.26
2022-09-13T06:31:20.992Z,1012.14
2022-09-13T06:32:20.950Z,1012.29
2022-09-13T06:33:20.911Z,1012.27
2022-09-13T06:34:20.912Z,1012.26
2022-09-13T06:35:20.899Z,1012.26
2022-09-13T06:36:20.893Z,1012.19
2022-09-13T06:37:20.919Z,1012.23
2022-09-13T06:38:20.939Z,1012.16
2022-09-13T06:39:20.893Z,1012.1
2022-09-13T06:40:25.143Z,1012.1
2022-09-13T06:41:20.915Z,1012.09
2022-09-13T06:42:20.920Z,1012.11
2022-09-13T06:43:20.891Z,1012.12
2022-09-13T06:44:20.904Z,1012.01
2022-09-13T06:45:20.895Z,1012.01
2022-09-13T06:46:24.972Z,1012.01
2022-09-13T06:47:20.989Z,1012.03
2022-09-13T06:48:20.893Z,1012.19
2022-09-13T06:49:20.910Z,1012.15
2022-09-13T06:50:20.910Z,1012.15
2022-09-13T06:51:20.896Z,1012.02
2022-09-13T06:52:20.910Z,1012.09
2022-09-13T06:53:20.896Z,1012.14
2022-09-13T06:54:20.895Z,1012.21
2022-09-13T06:55:20.926Z,1012.21
2022-09-13T06:56:20.895Z,1012.19
2022-09-13T06:57:20.908Z,1012.13
2022-09-13T06:58:20.898Z,1012.14
2022-09-13T06:59:20.899Z,1012.1
2022-09-13T07:00:20.910Z,1012.1
2022-09-13T07:01:21.060Z,1012.09
2022-09-13T07:02:20.945Z,1012.13
2022-09-13T07:03:20.934Z,1012.22
2022-09-13T07:04:20.907Z,1012.23
2022-09-13T07:05:20.901Z,1012.23
2022-09-13T07:06:22.564Z,1012.31
2022-09-13T07:07:20.932Z,1012.23
2022-09-13T07:08:20.909Z,1012.23
2022-09-13T07:09:20.915Z,1012.24
2022-09-13T07:10:20.917Z,1012.24
2022-09-13T07:11:20.913Z,1012.22
2022-09-13T07:12:20.939Z,1012.3
2022-09-13T07:13:20.910Z,1012.28
2022-09-13T07:14:20.918Z,1012.23
2022-09-13T07:15:20.896Z,1012.23
2022-09-13T07:16:21.085Z,1012.24
2022-09-13T07:17:20.940Z,1012.13
2022-09-13T07:18:20.909Z,1012.25
2022-09-13T07:19:20.906Z,1012.18
2022-09-13T07:20:20.904Z,1012.18
2022-09-13T07:21:20.907Z,1012.18
2022-09-13T07:22:20.930Z,1012.18
2022-09-13T07:23:20.905Z,1012.2
2022-09-13T07:24:20.912Z,1012.17
2022-09-13T07:25:20.908Z,1012.17
2022-09-13T07:26:20.915Z,1012.09
2022-09-13T07:27:20.935Z,1012.07
2022-09-13T07:28:22.397Z,1012.12
2022-09-13T07:29:20.923Z,1012.14
2022-09-13T07:30:20.900Z,1012.14
2022-09-13T07:31:20.970Z,1012.09
2022-09-13T07:32:20.930Z,1012.07
2022-09-13T07:33:20.923Z,1012
2022-09-13T07:34:20.919Z,1012
2022-09-13T07:35:20.892Z,1012
2022-09-13T07:36:20.912Z,1012.1
2022-09-13T07:37:20.993Z,1012.05
2022-09-13T07:38:20.915Z,1012.06
2022-09-13T07:39:22.969Z,1012.1
2022-09-13T07:40:21.003Z,1012.1
2022-09-13T07:41:20.904Z,1012.03
2022-09-13T07:42:20.930Z,1012.05
2022-09-13T07:43:20.910Z,1012.07
2022-09-13T07:44:20.911Z,1012.13
2022-09-13T07:45:20.942Z,1012.13
2022-09-13T07:46:20.941Z,1012.28
2022-09-13T07:47:20.922Z,1012.07
2022-09-13T07:48:20.903Z,1012.11
2022-09-13T07:49:20.908Z,1012.09
2022-09-13T07:50:20.904Z,1012.09
2022-09-13T07:51:20.914Z,1012.21
2022-09-13T07:52:20.927Z,1012.09
2022-09-13T07:53:20.912Z,1012.04
2022-09-13T07:54:20.952Z,1012.1
2022-09-13T07:55:20.922Z,1012.1
2022-09-13T07:56:20.891Z,1012.07
2022-09-13T07:57:20.910Z,1012.04
2022-09-13T07:58:20.893Z,1012.12
2022-09-13T07:59:20.901Z,1012.09
2022-09-13T08:00:20.974Z,1012.09
2022-09-13T08:01:20.997Z,1012
2022-09-13T08:02:20.969Z,1011.97
2022-09-13T08:03:20.896Z,1011.93
2022-09-13T08:04:20.897Z,1011.94
2022-09-13T08:05:20.901Z,1011.94
2022-09-13T08:06:20.896Z,1012
2022-09-13T08:07:20.907Z,1011.99
2022-09-13T08:08:20.891Z,1011.99
2022-09-13T08:09:20.908Z,1011.96
2022-09-13T08:10:20.973Z,1011.96
2022-09-13T08:11:20.903Z,1011.95
2022-09-13T08:12:20.907Z,1011.89
2022-09-13T08:13:20.894Z,1011.86
2022-09-13T08:14:20.891Z,1011.82
2022-09-13T08:15:20.894Z,1011.82
2022-09-13T08:16:20.891Z,1011.82
2022-09-13T08:17:20.925Z,1011.85
2022-09-13T08:18:20.909Z,1011.86
2022-09-13T08:19:20.908Z,1011.89
2022-09-13T08:20:20.913Z,1011.89
2022-09-13T08:21:20.906Z,1011.89
2022-09-13T08:22:20.930Z,1011.95
2022-09-13T08:23:20.905Z,1011.89
2022-09-13T08:24:20.918Z,1011.92
2022-09-13T08:25:20.911Z,1011.92
2022-09-13T08:26:20.925Z,1011.92
2022-09-13T08:27:20.935Z,1011.9
2022-09-13T08:28:24.285Z,1011.93
2022-09-13T08:29:20.908Z,1011.96
2022-09-13T08:30:20.904Z,1011.96
2022-09-13T08:31:20.925Z,1011.92
2022-09-13T08:32:20.919Z,1011.94
2022-09-13T08:33:20.950Z,1012
2022-09-13T08:34:20.949Z,1012.02
2022-09-13T08:35:20.910Z,1012.02
2022-09-13T08:36:20.904Z,1012.09
2022-09-13T08:37:20.923Z,1012.09
2022-09-13T08:38:20.921Z,1012.01
2022-09-13T08:39:20.964Z,1012
2022-09-13T08:40:20.980Z,1012
2022-09-13T08:41:20.906Z,1011.93
2022-09-13T08:42:20.931Z,1011.99
2022-09-13T08:43:20.907Z,1012.03
2022-09-13T08:44:20.907Z,1012.03
2022-09-13T08:45:20.897Z,1012.03
2022-09-13T08:46:20.932Z,1012.12
2022-09-13T08:47:20.933Z,1012.06
2022-09-13T08:48:20.913Z,1011.99
2022-09-13T08:49:20.920Z,1011.98
2022-09-13T08:50:20.904Z,1011.98
2022-09-13T08:51:20.914Z,1011.93
2022-09-13T08:52:20.937Z,1011.91
2022-09-13T08:53:20.912Z,1011.87
2022-09-13T08:54:20.906Z,1011.86
2022-09-13T08:55:20.917Z,1011.86
2022-09-13T08:56:20.920Z,1011.9
2022-09-13T08:57:20.967Z,1011.95
2022-09-13T08:58:20.909Z,1011.93
2022-09-13T08:59:20.909Z,1012.14
2022-09-13T09:00:21.234Z,1012.14
2022-09-13T09:01:20.961Z,1012.03
2022-09-13T09:02:21.004Z,1011.92
2022-09-13T09:03:20.915Z,1011.99
2022-09-13T09:04:20.897Z,1012.01
2022-09-13T09:05:20.895Z,1012.01
2022-09-13T09:06:20.905Z,1012.03
2022-09-13T09:07:20.958Z,1011.99
2022-09-13T09:08:20.907Z,1011.99
2022-09-13T09:09:20.892Z,1012.14
2022-09-13T09:10:20.985Z,1012.14
2022-09-13T09:11:20.907Z,1012.1
2022-09-13T09:12:20.925Z,1012.07
2022-09-13T09:13:24.412Z,1012.05
2022-09-13T09:14:20.916Z,1012.05
2022-09-13T09:15:20.895Z,1012.05
2022-09-13T09:16:20.911Z,1012.05
2022-09-13T09:17:20.921Z,1011.98
2022-09-13T09:18:20.916Z,1011.98
2022-09-13T09:19:20.895Z,1011.96
2022-09-13T09:20:20.896Z,1011.93
2022-09-13T09:21:20.894Z,1011.94
2022-09-13T09:22:20.910Z,1011.96
2022-09-13T09:23:21.793Z,1012.01
2022-09-13T09:24:20.889Z,1012.01
2022-09-13T09:25:20.915Z,1012.01
2022-09-13T09:26:20.890Z,1012.03
2022-09-13T09:27:20.919Z,1011.97
2022-09-13T09:28:20.897Z,1011.97
2022-09-13T09:29:24.909Z,1011.92
2022-09-13T09:30:20.922Z,1011.92
2022-09-13T09:31:20.958Z,1011.94
2022-09-13T09:32:20.908Z,1011.99
2022-09-13T09:33:20.891Z,1012.01
2022-09-13T09:34:20.909Z,1012.02
2022-09-13T09:35:20.900Z,1012.02
2022-09-13T09:36:20.911Z,1012.04
2022-09-13T09:37:20.920Z,1012.03
2022-09-13T09:38:20.908Z,1012.03
2022-09-13T09:39:20.913Z,1012.04
2022-09-13T09:40:20.980Z,1012.04
2022-09-13T09:41:20.909Z,1012.04
2022-09-13T09:42:20.934Z,1012.05
2022-09-13T09:43:20.919Z,1012.06
2022-09-13T09:44:20.957Z,1012.05
2022-09-13T09:45:20.897Z,1012.05
2022-09-13T09:46:21.008Z,1012.03
2022-09-13T09:47:20.976Z,1011.99
2022-09-13T09:48:20.914Z,1011.99
2022-09-13T09:49:20.906Z,1012.03
2022-09-13T09:50:20.906Z,1012.03
2022-09-13T09:51:20.906Z,1011.96
2022-09-13T09:52:20.938Z,1012.02
2022-09-13T09:53:20.915Z,1011.92
2022-09-13T09:54:20.915Z,1011.9
2022-09-13T09:55:20.922Z,1011.9
2022-09-13T09:56:20.918Z,1011.94
2022-09-13T09:57:20.939Z,1011.89
2022-09-13T09:58:20.907Z,1011.9
2022-09-13T09:59:20.913Z,1011.91
2022-09-13T10:00:20.914Z,1011.91
2022-09-13T10:01:20.947Z,1011.9
2022-09-13T10:02:20.977Z,1011.81
2022-09-13T10:03:20.913Z,1011.8
2022-09-13T10:04:20.917Z,1011.85
2022-09-13T10:05:20.903Z,1011.85
2022-09-13T10:06:20.916Z,1011.78
2022-09-13T10:07:20.924Z,1011.81
2022-09-13T10:08:20.913Z,1011.81
2022-09-13T10:09:20.912Z,1011.91
2022-09-13T10:10:20.925Z,1011.91
2022-09-13T10:11:20.909Z,1011.88
2022-09-13T10:12:20.976Z,1011.8
2022-09-13T10:13:20.916Z,1011.82
2022-09-13T10:14:20.914Z,1011.79
2022-09-13T10:15:20.900Z,1011.79
2022-09-13T10:16:20.953Z,1011.79
2022-09-13T10:17:20.953Z,1011.74
2022-09-13T10:18:42.924Z,1011.72
2022-09-13T10:19:20.914Z,1011.65
2022-09-13T10:20:20.905Z,1011.65
2022-09-13T10:21:20.912Z,1011.52
2022-09-13T10:22:20.925Z,1011.53
2022-09-13T10:23:20.905Z,1011.55
2022-09-13T10:24:20.917Z,1011.59
2022-09-13T10:25:20.921Z,1011.59
2022-09-13T10:26:20.916Z,1011.55
2022-09-13T10:27:20.921Z,1011.47
2022-09-13T10:28:20.918Z,1011.53
2022-09-13T10:29:20.909Z,1011.53
2022-09-13T10:30:20.914Z,1011.53
2022-09-13T10:31:20.976Z,1011.44
2022-09-13T10:32:20.908Z,1011.51
2022-09-13T10:33:20.902Z,1011.46
2022-09-13T10:34:20.893Z,1011.43
2022-09-13T10:35:20.903Z,1011.5
2022-09-13T10:36:41.185Z,1011.41
2022-09-13T10:37:20.914Z,1011.64
2022-09-13T10:38:20.901Z,1011.64
2022-09-13T10:39:20.891Z,1011.64
2022-09-13T10:40:21.004Z,1011.64
2022-09-13T10:41:20.893Z,1011.66
2022-09-13T10:42:20.913Z,1011.64
2022-09-13T10:43:20.892Z,1011.68
2022-09-13T10:44:20.903Z,1011.64
2022-09-13T10:45:20.896Z,1011.64
2022-09-13T10:46:20.996Z,1011.71
2022-09-13T10:47:20.921Z,1011.74
2022-09-13T10:48:20.911Z,1011.69
2022-09-13T10:49:20.914Z,1011.8
2022-09-13T10:50:20.905Z,1011.8
2022-09-13T10:51:20.907Z,1011.68
2022-09-13T10:52:20.991Z,1011.71
2022-09-13T10:53:20.918Z,1011.69
2022-09-13T10:54:20.897Z,1011.62
2022-09-13T10:55:20.922Z,1011.62
2022-09-13T10:56:20.903Z,1011.69
2022-09-13T10:57:20.925Z,1011.76
2022-09-13T10:58:20.915Z,1011.68
2022-09-13T10:59:20.911Z,1011.75
2022-09-13T11:00:20.900Z,1011.75
2022-09-13T11:01:20.943Z,1011.67
2022-09-13T11:02:20.931Z,1011.66
2022-09-13T11:03:20.911Z,1011.67
2022-09-13T11:04:20.939Z,1011.67
2022-09-13T11:05:20.890Z,1011.67
2022-09-13T11:06:20.912Z,1011.67
2022-09-13T11:07:20.921Z,1011.61
2022-09-13T11:08:20.914Z,1011.61
2022-09-13T11:09:20.916Z,1011.62
2022-09-13T11:10:20.932Z,1011.62
2022-09-13T11:11:20.916Z,1011.55
2022-09-13T11:12:20.924Z,1011.54
2022-09-13T11:13:20.912Z,1011.49
2022-09-13T11:14:20.964Z,1011.46
2022-09-13T11:15:20.900Z,1011.46
2022-09-13T11:16:21.033Z,1011.45
2022-09-13T11:17:20.929Z,1011.41
2022-09-13T11:18:20.910Z,1011.4
2022-09-13T11:19:20.918Z,1011.32
2022-09-13T11:20:20.915Z,1011.32
2022-09-13T11:21:20.910Z,1011.33
2022-09-13T11:22:20.934Z,1011.28
2022-09-13T11:23:20.911Z,1011.29
2022-09-13T11:24:20.918Z,1011.31
2022-09-13T11:25:20.905Z,1011.31
2022-09-13T11:26:20.968Z,1011.33
2022-09-13T11:27:20.924Z,1011.3
2022-09-13T11:28:20.913Z,1011.27
2022-09-13T11:29:20.910Z,1011.22
2022-09-13T11:30:20.910Z,1011.22
2022-09-13T11:31:20.914Z,1011.19
2022-09-13T11:32:20.971Z,1011.2
2022-09-13T11:33:20.917Z,1011.26
2022-09-13T11:34:20.961Z,1011.16
2022-09-13T11:35:20.906Z,1011.16
2022-09-13T11:36:20.910Z,1011.12
2022-09-13T11:37:20.961Z,1011.11
2022-09-13T11:38:20.914Z,1011.11
2022-09-13T11:39:20.918Z,1011.01
2022-09-13T11:40:20.993Z,1011.01
2022-09-13T11:41:20.920Z,1011.04
2022-09-13T11:42:20.953Z,1011.06
2022-09-13T11:43:20.917Z,1011.03
2022-09-13T11:44:20.938Z,1010.99
2022-09-13T11:45:21.888Z,1010.99
2022-09-13T11:46:20.909Z,1011.05
2022-09-13T11:47:20.962Z,1011.04
2022-09-13T11:48:20.915Z,1011
2022-09-13T11:49:20.896Z,1011.03
2022-09-13T11:50:20.926Z,1010.94
2022-09-13T11:51:20.891Z,1010.95
2022-09-13T11:52:21.094Z,1010.88
2022-09-13T11:53:20.892Z,1010.93
2022-09-13T11:54:20.894Z,1010.93
2022-09-13T11:55:20.917Z,1010.93
2022-09-13T11:56:20.894Z,1010.87
2022-09-13T11:57:20.909Z,1010.86
2022-09-13T11:58:20.900Z,1010.85
2022-09-13T11:59:20.960Z,1010.81
2022-09-13T12:00:20.901Z,1010.81
2022-09-13T12:01:20.905Z,1010.83
2022-09-13T12:02:21.051Z,1010.81
2022-09-13T12:03:21.081Z,1010.77
2022-09-13T12:04:20.903Z,1010.67
2022-09-13T12:05:23.036Z,1010.67
2022-09-13T12:06:20.897Z,1010.76
2022-09-13T12:07:20.913Z,1010.66
2022-09-13T12:08:20.896Z,1010.66